createdAt,value
2018-02-15T00:00:52.886Z,14.90
2018-02-15T00:01:52.840Z,14.40
2018-02-15T00:02:52.750Z,15.30
2018-02-15T00:03:52.633Z,15.70
2018-02-15T00:04:52.644Z,14.90
2018-02-15T00:05:52.455Z,16.10
2018-02-15T00:06:52.398Z,15.40
2018-02-15T00:07:52.301Z,14.70
2018-02-15T00:08:52.208Z,15.30
2018-02-15T00:09:52.137Z,14.60
2018-02-15T00:10:52.049Z,15.20
2018-02-15T00:11:51.953Z,12.60
2018-02-15T00:12:51.910Z,13.40
2018-02-15T00:13:51.804Z,14.70
2018-02-15T00:14:51.711Z,13.60
2018-02-15T00:15:51.628Z,13.40
2018-02-15T00:16:51.543Z,14.20
2018-02-15T00:17:51.472Z,15.10
2018-02-15T00:18:51.392Z,13.80
2018-02-15T00:19:51.290Z,15.60
2018-02-15T00:20:51.217Z,16.10
2018-02-15T00:21:51.124Z,14.30
2018-02-15T00:22:51.058Z,15.00
2018-02-15T00:23:50.972Z,15.30
2018-02-15T00:24:50.888Z,16.30
2018-02-15T00:25:50.799Z,15.90
2018-02-15T00:26:50.715Z,15.90
2018-02-15T00:27:50.625Z,14.40
2018-02-15T00:28:50.577Z,12.80
2018-02-15T00:29:50.457Z,13.50
2018-02-15T00:30:50.396Z,18.10
2018-02-15T00:31:50.305Z,10.60
2018-02-15T00:32:50.213Z,14.40
2018-02-15T00:33:50.149Z,13.60
2018-02-15T00:34:50.101Z,15.50
2018-02-15T00:35:49.960Z,13.00
2018-02-15T00:36:49.898Z,13.20
2018-02-15T00:37:49.794Z,13.60
2018-02-15T00:38:49.740Z,13.50
2018-02-15T00:39:49.625Z,11.70
2018-02-15T00:40:49.544Z,12.90
2018-02-15T00:41:49.458Z,13.50
2018-02-15T00:42:49.395Z,14.50
2018-02-15T00:43:49.324Z,13.40
2018-02-15T00:44:49.245Z,13.20
2018-02-15T00:45:49.131Z,14.40
2018-02-15T00:46:49.056Z,12.50
2018-02-15T00:47:48.963Z,14.40
2018-02-15T00:48:48.922Z,16.70
2018-02-15T00:49:48.804Z,12.80
2018-02-15T00:50:48.716Z,13.00
2018-02-15T00:51:48.637Z,16.20
2018-02-15T00:52:48.555Z,12.20
2018-02-15T00:53:48.467Z,13.70
2018-02-15T00:54:48.529Z,14.20
2018-02-15T00:55:48.306Z,18.00
2018-02-15T00:56:48.217Z,12.70
2018-02-15T00:57:48.132Z,15.40
2018-02-15T00:58:48.071Z,14.20
2018-02-15T00:59:47.984Z,13.20
2018-02-15T01:00:47.901Z,13.30
2018-02-15T01:01:47.792Z,15.60
2018-02-15T01:02:47.716Z,14.50
2018-02-15T01:03:47.623Z,15.30
2018-02-15T01:04:47.556Z,12.20
2018-02-15T01:05:47.478Z,13.30
2018-02-15T01:06:47.402Z,11.60
2018-02-15T01:07:47.294Z,11.30
2018-02-15T01:08:47.227Z,14.00
2018-02-15T01:09:47.130Z,11.10
2018-02-15T01:10:47.080Z,13.40
2018-02-15T01:11:47.057Z,11.00
2018-02-15T01:12:46.906Z,13.60
2018-02-15T01:13:46.800Z,17.90
2018-02-15T01:14:46.719Z,13.90
2018-02-15T01:15:46.638Z,14.60
2018-02-15T01:16:46.564Z,11.60
2018-02-15T01:17:46.462Z,13.40
2018-02-15T01:20:28.634Z,13.40
2018-02-15T01:21:28.649Z,13.40
2018-02-15T01:22:28.466Z,13.70
2018-02-15T01:23:28.389Z,12.40
2018-02-15T01:24:28.293Z,13.10
2018-02-15T01:25:28.211Z,12.90
2018-02-15T01:26:28.141Z,12.70
2018-02-15T01:27:28.051Z,12.50
2018-02-15T01:28:27.960Z,11.10
2018-02-15T01:48:49.967Z,12.40
2018-02-15T01:49:49.867Z,11.80
2018-02-15T01:50:49.761Z,13.40
2018-02-15T01:51:49.705Z,13.50
2018-02-15T01:52:49.615Z,11.30
2018-02-15T01:53:49.535Z,11.60
2018-02-15T01:54:49.427Z,11.60
2018-02-15T01:55:49.363Z,13.20
2018-02-15T01:56:49.267Z,12.80
2018-02-15T01:57:49.209Z,11.60
2018-02-15T01:58:49.102Z,13.60
2018-02-15T01:59:49.029Z,10.40
2018-02-15T02:00:48.930Z,11.90
2018-02-15T02:01:48.851Z,13.70
2018-02-15T02:02:48.799Z,12.80
2018-02-15T02:03:48.705Z,10.70
2018-02-15T02:04:48.613Z,11.50
2018-02-15T02:05:48.536Z,13.90
2018-02-15T02:06:48.434Z,12.60
2018-02-15T02:07:48.391Z,13.00
2018-02-15T02:08:48.264Z,14.50
2018-02-15T02:09:48.189Z,12.70
2018-02-15T02:10:48.100Z,9.80
2018-02-15T02:11:48.042Z,12.70
2018-02-15T02:12:47.940Z,14.10
2018-02-15T02:13:47.877Z,13.80
2018-02-15T02:14:47.774Z,12.30
2018-02-15T02:15:47.711Z,14.60
2018-02-15T02:16:47.608Z,13.00
2018-02-15T02:17:47.593Z,11.10
2018-02-15T02:18:47.457Z,11.60
2018-02-15T02:19:47.364Z,11.60
2018-02-15T02:20:47.332Z,12.00
2018-02-15T02:21:47.201Z,12.90
2018-02-15T02:22:47.101Z,13.50
2018-02-15T02:23:47.037Z,12.20
2018-02-15T02:24:46.952Z,12.70
2018-02-15T02:25:46.862Z,12.30
2018-02-15T02:26:46.770Z,11.90
2018-02-15T02:27:46.700Z,13.20
2018-02-15T02:28:46.611Z,14.40
2018-02-15T02:29:46.531Z,12.80
2018-02-15T02:30:46.442Z,12.90
2018-02-15T02:31:46.370Z,14.10
2018-02-15T02:32:46.269Z,13.60
2018-02-15T02:33:46.231Z,14.80
2018-02-15T02:34:46.107Z,14.60
2018-02-15T02:35:46.044Z,11.90
2018-02-15T02:36:45.944Z,12.60
2018-02-15T02:37:46.716Z,12.60
2018-02-15T02:38:45.776Z,11.60
2018-02-15T02:39:45.724Z,12.20
2018-02-15T02:40:45.644Z,12.50
2018-02-15T02:41:45.529Z,13.40
2018-02-15T02:42:45.441Z,12.70
2018-02-15T02:43:45.372Z,13.70
2018-02-15T02:44:45.305Z,12.40
2018-02-15T02:45:45.198Z,11.00
2018-02-15T02:46:45.114Z,12.90
2018-02-15T02:47:45.034Z,12.10
2018-02-15T02:48:44.938Z,12.10
2018-02-15T02:49:45.297Z,11.80
2018-02-15T02:50:44.781Z,14.10
2018-02-15T02:51:44.709Z,13.50
2018-02-15T02:52:44.606Z,13.10
2018-02-15T02:53:44.541Z,14.00
2018-02-15T02:54:44.451Z,13.20
2018-02-15T02:55:44.392Z,13.70
2018-02-15T02:56:44.281Z,14.00
2018-02-15T02:57:44.203Z,13.90
2018-02-15T02:58:44.122Z,10.80
2018-02-15T02:59:44.034Z,13.10
2018-02-15T03:00:43.957Z,13.20
2018-02-15T03:01:43.871Z,14.20
2018-02-15T03:02:43.797Z,15.50
2018-02-15T03:03:43.707Z,14.40
2018-02-15T03:04:43.613Z,13.50
2018-02-15T03:05:43.560Z,12.10
2018-02-15T03:06:43.439Z,11.60
2018-02-15T03:09:25.641Z,13.70
2018-02-15T03:10:25.639Z,14.50
2018-02-15T03:11:25.493Z,13.50
2018-02-15T03:12:25.393Z,13.10
2018-02-15T03:13:25.309Z,15.20
2018-02-15T03:14:25.238Z,13.50
2018-02-15T03:15:25.160Z,13.50
2018-02-15T03:16:25.070Z,13.40
2018-02-15T03:17:25.002Z,13.40
2018-02-15T03:18:24.912Z,14.90
2018-02-15T03:19:24.802Z,14.40
2018-02-15T03:20:24.801Z,13.30
2018-02-15T03:21:24.673Z,14.00
2018-02-15T03:22:24.586Z,13.70
2018-02-15T03:23:24.485Z,15.60
2018-02-15T03:24:24.407Z,13.20
2018-02-15T03:25:24.304Z,14.70
2018-02-15T03:26:24.277Z,11.70
2018-02-15T03:27:24.179Z,13.50
2018-02-15T03:28:24.069Z,14.20
2018-02-15T03:29:23.974Z,11.30
2018-02-15T03:30:23.902Z,16.20
2018-02-15T03:31:23.801Z,16.60
2018-02-15T03:32:23.773Z,14.60
2018-02-15T03:33:23.645Z,15.80
2018-02-15T03:34:23.567Z,15.80
2018-02-15T03:35:23.483Z,14.20
2018-02-15T03:36:23.401Z,13.60
2018-02-15T03:37:23.329Z,14.10
2018-02-15T03:38:23.257Z,15.30
2018-02-15T03:39:23.142Z,14.50
2018-02-15T03:40:23.113Z,15.20
2018-02-15T03:41:22.970Z,16.90
2018-02-15T03:42:22.924Z,15.90
2018-02-15T03:43:22.879Z,14.90
2018-02-15T03:44:22.734Z,17.40
2018-02-15T03:45:22.642Z,15.50
2018-02-15T03:46:22.561Z,16.80
2018-02-15T03:47:22.496Z,16.60
2018-02-15T03:48:22.409Z,15.70
2018-02-15T03:49:22.304Z,16.50
2018-02-15T03:50:22.233Z,17.40
2018-02-15T03:51:22.136Z,18.90
2018-02-15T03:52:22.088Z,18.20
2018-02-15T03:53:21.983Z,17.90
2018-02-15T03:54:21.889Z,17.80
2018-02-15T03:55:21.809Z,20.60
2018-02-15T03:56:21.734Z,16.50
2018-02-15T03:57:21.634Z,18.10
2018-02-15T03:58:21.589Z,21.30
2018-02-15T03:59:21.474Z,21.00
2018-02-15T04:00:21.395Z,19.90
2018-02-15T04:01:21.303Z,21.20
2018-02-15T04:02:21.227Z,19.00
2018-02-15T04:03:21.150Z,20.10
2018-02-15T04:04:21.054Z,21.50
2018-02-15T04:05:20.955Z,21.80
2018-02-15T04:06:20.887Z,21.70
2018-02-15T04:07:20.793Z,21.00
2018-02-15T04:08:20.735Z,19.70
2018-02-15T04:09:20.654Z,21.50
2018-02-15T04:10:20.562Z,18.30
2018-02-15T04:11:20.460Z,22.70
2018-02-15T04:12:20.378Z,24.10
2018-02-15T04:13:20.412Z,21.40
2018-02-15T04:14:20.213Z,24.90
2018-02-15T04:15:20.138Z,23.80
2018-02-15T04:16:20.065Z,22.80
2018-02-15T04:17:19.982Z,22.90
2018-02-15T04:18:19.899Z,19.20
2018-02-15T04:19:19.800Z,28.40
2018-02-15T04:20:19.709Z,19.40
2018-02-15T04:21:19.618Z,20.50
2018-02-15T04:22:19.562Z,25.90
2018-02-15T04:23:19.451Z,26.70
2018-02-15T04:24:19.389Z,25.40
2018-02-15T04:25:19.282Z,23.40
2018-02-15T04:26:19.208Z,27.30
2018-02-15T04:27:19.106Z,27.60
2018-02-15T04:28:19.064Z,31.70
2018-02-15T04:29:18.966Z,28.90
2018-02-15T04:30:18.871Z,25.40
2018-02-15T04:31:18.763Z,31.80
2018-02-15T04:32:18.701Z,28.00
2018-02-15T04:33:18.680Z,27.80
2018-02-15T04:34:18.546Z,32.80
2018-02-15T04:35:18.458Z,23.90
2018-02-15T04:36:18.356Z,25.50
2018-02-15T04:37:18.287Z,33.30
2018-02-15T04:38:18.197Z,32.40
2018-02-15T04:39:18.102Z,28.80
2018-02-15T04:40:18.045Z,35.00
2018-02-15T04:41:17.923Z,36.20
2018-02-15T04:42:17.856Z,33.30
2018-02-15T04:43:17.811Z,34.00
2018-02-15T04:44:17.676Z,29.00
2018-02-15T04:45:17.614Z,38.70
2018-02-15T04:46:17.584Z,36.90
2018-02-15T04:47:17.415Z,39.90
2018-02-15T04:48:17.345Z,37.00
2018-02-15T04:49:17.250Z,34.80
2018-02-15T04:50:17.197Z,36.20
2018-02-15T04:51:17.090Z,42.70
2018-02-15T04:52:17.010Z,42.60
2018-02-15T04:53:16.901Z,38.40
2018-02-15T04:54:16.847Z,31.30
2018-02-15T04:55:16.741Z,38.70
2018-02-15T04:56:16.688Z,33.40
2018-02-15T04:57:16.570Z,35.20
2018-02-15T04:59:58.661Z,43.50
2018-02-15T05:00:58.575Z,42.10
2018-02-15T05:01:58.493Z,50.70
2018-02-15T05:02:58.403Z,34.40
2018-02-15T05:03:58.304Z,35.60
2018-02-15T05:04:58.234Z,40.80
2018-02-15T05:05:58.142Z,38.10
2018-02-15T05:06:58.095Z,31.60
2018-02-15T05:07:57.973Z,40.50
2018-02-15T05:08:57.885Z,42.30
2018-02-15T05:09:57.807Z,42.60
2018-02-15T05:10:57.724Z,40.50
2018-02-15T05:11:57.630Z,42.00
2018-02-15T05:12:57.673Z,48.70
2018-02-15T05:13:57.454Z,47.50
2018-02-15T05:14:57.387Z,45.10
2018-02-15T05:15:57.296Z,36.20
2018-02-15T05:16:57.214Z,49.10
2018-02-15T05:17:57.135Z,36.20
2018-02-15T05:18:57.046Z,43.30
2018-02-15T05:19:56.943Z,30.60
2018-02-15T05:20:56.874Z,45.00
2018-02-15T05:21:56.782Z,44.80
2018-02-15T05:22:56.723Z,46.30
2018-02-15T05:23:56.616Z,43.30
2018-02-15T05:24:56.628Z,39.50
2018-02-15T05:25:56.481Z,43.00
2018-02-15T05:26:56.446Z,45.80
2018-02-15T05:27:56.312Z,38.10
2018-02-15T05:28:56.255Z,35.20
2018-02-15T05:29:56.733Z,31.10
2018-02-15T05:30:56.057Z,35.30
2018-02-15T05:31:55.937Z,39.00
2018-02-15T05:32:55.974Z,35.10
2018-02-15T05:33:55.803Z,43.20
2018-02-15T05:34:55.777Z,42.70
2018-02-15T05:35:55.594Z,38.90
2018-02-15T05:36:55.583Z,38.70
2018-02-15T05:37:55.436Z,39.30
2018-02-15T05:38:55.440Z,41.40
2018-02-15T05:39:55.257Z,32.00
2018-02-15T05:40:55.215Z,37.00
2018-02-15T05:41:55.098Z,47.70
2018-02-15T05:42:55.122Z,44.40
2018-02-15T05:43:54.935Z,33.40
2018-02-15T05:44:54.929Z,39.00
2018-02-15T05:45:54.754Z,37.70
2018-02-15T05:46:54.662Z,30.60
2018-02-15T05:47:54.583Z,43.10
2018-02-15T05:48:54.537Z,28.20
2018-02-15T05:49:54.412Z,43.30
2018-02-15T05:50:54.354Z,34.20
2018-02-15T05:51:54.270Z,23.90
2018-02-15T05:52:54.161Z,33.20
2018-02-15T05:53:54.086Z,39.60
2018-02-15T05:54:53.995Z,47.50
2018-02-15T05:55:53.909Z,47.10
2018-02-15T05:56:53.864Z,38.50
2018-02-15T05:57:53.730Z,44.80
2018-02-15T05:58:53.677Z,32.70
2018-02-15T05:59:53.571Z,35.00
2018-02-15T06:00:53.482Z,45.50
2018-02-15T06:01:53.395Z,38.10
2018-02-15T06:02:53.323Z,44.00
2018-02-15T06:03:53.244Z,35.70
2018-02-15T06:04:53.151Z,45.00
2018-02-15T06:05:53.047Z,31.00
2018-02-15T06:06:52.976Z,37.40
2018-02-15T06:07:52.874Z,46.80
2018-02-15T06:08:52.826Z,38.20
2018-02-15T06:09:52.736Z,41.00
2018-02-15T06:10:52.637Z,29.00
2018-02-15T06:11:52.546Z,41.20
2018-02-15T06:12:52.484Z,43.00
2018-02-15T06:13:52.381Z,41.70
2018-02-15T06:14:52.325Z,31.40
2018-02-15T06:15:52.225Z,36.10
2018-02-15T06:16:52.205Z,39.70
2018-02-15T06:17:52.025Z,42.80
2018-02-15T06:18:51.964Z,36.20
2018-02-15T06:19:51.900Z,45.70
2018-02-15T06:20:51.794Z,27.60
2018-02-15T06:21:51.711Z,23.20
2018-02-15T06:22:51.624Z,34.20
2018-02-15T06:23:51.534Z,39.40
2018-02-15T06:24:51.484Z,34.70
2018-02-15T06:25:51.368Z,35.80
2018-02-15T06:26:51.306Z,30.70
2018-02-15T06:27:51.182Z,35.20
2018-02-15T06:28:51.221Z,30.80
2018-02-15T06:29:51.032Z,37.90
2018-02-15T06:30:51.057Z,40.40
2018-02-15T06:31:50.845Z,36.20
2018-02-15T06:32:50.931Z,35.50
2018-02-15T06:33:50.678Z,37.60
2018-02-15T06:34:50.648Z,30.00
2018-02-15T06:35:50.545Z,34.70
2018-02-15T06:36:50.557Z,27.20
2018-02-15T06:37:50.340Z,37.80
2018-02-15T06:38:50.366Z,34.50
2018-02-15T06:39:50.172Z,34.10
2018-02-15T06:40:51.236Z,28.30
2018-02-15T06:41:50.003Z,32.00
2018-02-15T06:42:49.973Z,31.60
2018-02-15T06:43:49.849Z,30.10
2018-02-15T06:44:49.785Z,31.60
2018-02-15T06:45:49.688Z,30.20
2018-02-15T06:46:49.704Z,30.40
2018-02-15T06:47:49.503Z,27.70
2018-02-15T06:48:49.506Z,31.90
2018-02-15T06:49:49.388Z,29.00
2018-02-15T06:50:49.316Z,29.50
2018-02-15T06:51:49.171Z,31.50
2018-02-15T06:52:49.126Z,28.20
2018-02-15T06:53:48.992Z,28.90
2018-02-15T06:54:48.950Z,34.50
2018-02-15T06:55:48.814Z,29.80
2018-02-15T06:56:48.875Z,28.40
2018-02-15T06:57:48.656Z,29.90
2018-02-15T06:58:48.658Z,31.20
2018-02-15T06:59:48.484Z,25.60
2018-02-15T07:00:48.456Z,28.90
2018-02-15T07:01:48.346Z,28.40
2018-02-15T07:04:56.660Z,29.80
2018-02-15T07:05:56.577Z,30.30
2018-02-15T07:06:56.511Z,29.10
2018-02-15T07:07:56.414Z,29.40
2018-02-15T07:08:56.315Z,27.00
2018-02-15T07:09:56.240Z,28.60
2018-02-15T07:10:56.186Z,27.80
2018-02-15T07:11:56.135Z,31.70
2018-02-15T07:12:55.977Z,28.60
2018-02-15T07:13:55.916Z,26.90
2018-02-15T07:14:55.809Z,25.30
2018-02-15T07:15:55.740Z,26.30
2018-02-15T07:16:55.673Z,30.90
2018-02-15T07:17:55.564Z,30.10
2018-02-15T07:18:55.469Z,30.20
2018-02-15T07:19:55.414Z,29.30
2018-02-15T07:20:55.306Z,22.50
2018-02-15T07:21:55.229Z,29.70
2018-02-15T07:22:55.153Z,30.40
2018-02-15T07:23:55.092Z,29.70
2018-02-15T07:24:54.981Z,31.80
2018-02-15T07:25:54.932Z,29.00
2018-02-15T07:26:54.802Z,29.60
2018-02-15T07:27:54.755Z,32.00
2018-02-15T07:28:54.625Z,32.50
2018-02-15T07:29:54.563Z,27.30
2018-02-15T07:30:54.457Z,29.80
2018-02-15T07:31:54.382Z,31.50
2018-02-15T07:32:54.291Z,26.80
2018-02-15T07:33:54.236Z,27.60
2018-02-15T07:34:54.116Z,32.20
2018-02-15T07:35:54.051Z,28.60
2018-02-15T07:36:53.952Z,23.40
2018-02-15T07:37:53.875Z,21.40
2018-02-15T07:38:53.799Z,27.10
2018-02-15T07:39:53.708Z,24.30
2018-02-15T07:40:53.662Z,20.70
2018-02-15T07:41:53.550Z,24.90
2018-02-15T07:42:53.454Z,27.30
2018-02-15T07:43:53.412Z,27.60
2018-02-15T07:44:53.276Z,19.20
2018-02-15T07:45:53.200Z,28.80
2018-02-15T07:46:53.110Z,23.00
2018-02-15T07:49:35.176Z,28.40
2018-02-15T07:50:35.131Z,27.20
2018-02-15T07:51:34.994Z,26.70
2018-02-15T07:54:17.184Z,25.70
2018-02-15T07:55:17.090Z,27.70
2018-02-15T07:56:16.991Z,24.00
2018-02-15T07:57:16.918Z,28.30
2018-02-15T07:58:16.827Z,29.30
2018-02-15T07:59:16.798Z,23.90
2018-02-15T08:00:16.662Z,26.20
2018-02-15T08:01:16.585Z,28.20
2018-02-15T08:02:16.493Z,23.90
2018-02-15T08:03:16.414Z,26.80
2018-02-15T08:04:16.317Z,29.30
2018-02-15T08:05:16.264Z,26.30
2018-02-15T08:06:16.154Z,31.00
2018-02-15T08:07:16.073Z,25.50
2018-02-15T08:08:16.010Z,28.50
2018-02-15T08:09:15.905Z,24.50
2018-02-15T08:10:15.848Z,27.20
2018-02-15T08:11:15.749Z,21.10
2018-02-15T08:12:15.637Z,28.60
2018-02-15T08:13:15.579Z,29.50
2018-02-15T08:14:15.470Z,28.20
2018-02-15T08:15:15.416Z,27.80
2018-02-15T08:16:15.299Z,29.70
2018-02-15T08:17:15.238Z,27.10
2018-02-15T08:18:15.132Z,22.20
2018-02-15T08:19:15.063Z,26.10
2018-02-15T08:20:15.098Z,28.80
2018-02-15T08:21:14.917Z,26.60
2018-02-15T08:22:14.808Z,26.00
2018-02-15T08:23:14.814Z,25.70
2018-02-15T08:24:14.661Z,25.40
2018-02-15T08:25:14.568Z,23.90
2018-02-15T08:26:14.482Z,23.00
2018-02-15T08:27:14.391Z,27.80
2018-02-15T08:28:14.294Z,26.90
2018-02-15T08:29:14.225Z,25.50
2018-02-15T08:30:14.134Z,25.20
2018-02-15T08:31:14.092Z,24.60
2018-02-15T08:32:13.961Z,24.40
2018-02-15T08:33:13.890Z,25.00
2018-02-15T08:34:13.791Z,21.00
2018-02-15T08:35:13.711Z,26.20
2018-02-15T08:36:13.650Z,25.60
2018-02-15T08:37:13.570Z,26.60
2018-02-15T08:38:13.473Z,25.90
2018-02-15T08:39:13.408Z,24.90
2018-02-15T08:40:13.319Z,27.90
2018-02-15T08:41:13.247Z,27.20
2018-02-15T08:42:13.175Z,23.60
2018-02-15T08:43:13.065Z,25.10
2018-02-15T08:44:12.977Z,23.70
2018-02-15T08:45:12.886Z,27.40
2018-02-15T08:46:12.802Z,22.60
2018-02-15T08:47:12.736Z,26.40
2018-02-15T08:48:12.607Z,21.50
2018-02-15T08:49:12.540Z,24.90
2018-02-15T08:50:12.461Z,26.30
2018-02-15T08:51:12.368Z,30.80
2018-02-15T08:52:12.306Z,29.80
2018-02-15T08:54:54.164Z,28.30
2018-02-15T08:55:54.086Z,29.50
2018-02-15T08:56:54.038Z,32.80
2018-02-15T08:57:53.950Z,27.80
2018-02-15T08:58:53.833Z,26.10
2018-02-15T08:59:53.756Z,30.10
2018-02-15T09:00:53.758Z,31.60
2018-02-15T09:01:53.595Z,24.40
2018-02-15T09:02:53.510Z,28.60
2018-02-15T09:03:53.433Z,30.20
2018-02-15T09:04:53.320Z,32.30
2018-02-15T09:05:53.251Z,25.90
2018-02-15T09:06:53.204Z,30.20
2018-02-15T09:07:53.094Z,29.70
2018-02-15T09:08:53.011Z,31.80
2018-02-15T09:09:52.941Z,31.60
2018-02-15T09:10:52.853Z,31.70
2018-02-15T09:11:52.743Z,28.30
2018-02-15T09:12:52.656Z,30.30
2018-02-15T09:13:52.660Z,28.20
2018-02-15T09:14:52.486Z,27.30
2018-02-15T09:15:52.437Z,27.50
2018-02-15T09:16:52.326Z,28.90
2018-02-15T09:17:52.237Z,27.10
2018-02-15T09:18:52.159Z,28.70
2018-02-15T09:19:52.074Z,29.50
2018-02-15T09:20:51.988Z,29.80
2018-02-15T09:21:51.919Z,27.20
2018-02-15T09:22:51.821Z,25.50
2018-02-15T09:23:51.773Z,27.60
2018-02-15T09:24:51.640Z,26.70
2018-02-15T09:25:51.580Z,27.80
2018-02-15T09:26:51.479Z,23.20
2018-02-15T09:27:51.440Z,26.80
2018-02-15T09:28:51.320Z,25.90
2018-02-15T09:29:51.235Z,23.70
2018-02-15T09:30:51.177Z,24.20
2018-02-15T09:31:51.066Z,30.40
2018-02-15T09:32:50.975Z,29.60
2018-02-15T09:33:50.949Z,20.50
2018-02-15T09:34:50.809Z,28.50
2018-02-15T09:35:50.735Z,25.00
2018-02-15T09:36:50.635Z,33.10
2018-02-15T09:37:50.599Z,30.30
2018-02-15T09:38:50.484Z,35.60
2018-02-15T09:39:50.408Z,31.30
2018-02-15T09:40:50.306Z,38.00
2018-02-15T09:41:50.234Z,36.60
2018-02-15T09:42:50.134Z,38.60
2018-02-15T09:43:50.054Z,42.40
2018-02-15T09:44:49.988Z,31.80
2018-02-15T09:45:49.896Z,39.00
2018-02-15T09:46:49.824Z,40.40
2018-02-15T09:47:49.725Z,35.20
2018-02-15T09:48:49.630Z,36.40
2018-02-15T09:49:49.610Z,36.30
2018-02-15T09:50:49.465Z,39.00
2018-02-15T09:51:49.391Z,43.40
2018-02-15T09:52:49.293Z,42.10
2018-02-15T09:53:49.232Z,37.80
2018-02-15T09:54:49.166Z,43.80
2018-02-15T09:55:49.083Z,41.70
2018-02-15T09:56:48.966Z,40.70
2018-02-15T09:57:48.899Z,46.50
2018-02-15T09:58:48.797Z,43.80
2018-02-15T09:59:48.752Z,41.40
2018-02-15T10:00:48.636Z,43.10
2018-02-15T10:01:48.550Z,37.00
2018-02-15T10:02:48.498Z,41.10
2018-02-15T10:03:48.510Z,40.30
2018-02-15T10:04:48.316Z,39.60
2018-02-15T10:05:48.223Z,40.70
2018-02-15T10:06:48.129Z,36.90
2018-02-15T10:07:48.067Z,39.60
2018-02-15T10:08:47.961Z,40.90
2018-02-15T10:09:47.873Z,37.50
2018-02-15T10:10:47.812Z,45.20
2018-02-15T10:11:47.713Z,41.40
2018-02-15T10:12:47.641Z,43.80
2018-02-15T10:13:47.546Z,47.10
2018-02-15T10:14:47.448Z,44.00
2018-02-15T10:15:47.406Z,41.70
2018-02-15T10:16:47.277Z,43.40
2018-02-15T10:17:47.227Z,41.20
2018-02-15T10:18:47.125Z,45.10
2018-02-15T10:19:47.060Z,43.80
2018-02-15T10:20:46.999Z,41.40
2018-02-15T10:21:46.904Z,43.80
2018-02-15T10:22:46.877Z,50.20
2018-02-15T10:23:46.770Z,50.30
2018-02-15T10:24:46.624Z,50.00
2018-02-15T10:25:46.543Z,47.30
2018-02-15T10:26:46.446Z,53.40
2018-02-15T10:27:46.435Z,53.80
2018-02-15T10:28:46.268Z,49.30
2018-02-15T10:29:46.232Z,48.60
2018-02-15T10:30:46.114Z,44.10
2018-02-15T10:31:46.032Z,35.50
2018-02-15T10:32:45.934Z,49.60
2018-02-15T10:33:45.898Z,35.00
2018-02-15T10:34:45.772Z,46.70
2018-02-15T10:35:45.724Z,55.60
2018-02-15T10:36:45.642Z,57.80
2018-02-15T10:37:45.548Z,59.10
2018-02-15T10:38:45.461Z,66.20
2018-02-15T10:39:45.362Z,59.10
2018-02-15T10:40:45.282Z,69.30
2018-02-15T10:41:45.192Z,64.50
2018-02-15T10:42:45.110Z,65.60
2018-02-15T10:43:45.046Z,62.60
2018-02-15T10:44:44.948Z,69.20
2018-02-15T10:45:44.883Z,67.30
2018-02-15T10:46:44.775Z,56.30
2018-02-15T10:47:44.693Z,66.60
2018-02-15T10:48:44.619Z,59.80
2018-02-15T10:49:44.573Z,60.00
2018-02-15T10:50:44.476Z,67.00
2018-02-15T10:51:44.356Z,64.30
2018-02-15T10:52:44.288Z,69.10
2018-02-15T10:53:44.352Z,66.00
2018-02-15T10:54:44.129Z,64.00
2018-02-15T10:55:44.022Z,63.90
2018-02-15T10:56:43.933Z,69.00
2018-02-15T10:57:43.913Z,71.70
2018-02-15T10:58:43.759Z,60.60
2018-02-15T10:59:43.712Z,66.70
2018-02-15T11:00:43.617Z,61.10
2018-02-15T11:01:43.530Z,70.30
2018-02-15T11:02:43.428Z,66.50
2018-02-15T11:03:43.359Z,71.50
2018-02-15T11:04:43.289Z,73.60
2018-02-15T11:05:43.194Z,73.80
2018-02-15T11:06:43.101Z,68.10
2018-02-15T11:07:43.022Z,64.40
2018-02-15T11:08:42.950Z,67.00
2018-02-15T11:09:42.898Z,55.90
2018-02-15T11:10:42.767Z,58.70
2018-02-15T11:11:42.689Z,61.10
2018-02-15T11:12:42.608Z,52.10
2018-02-15T11:13:42.549Z,67.10
2018-02-15T11:14:42.431Z,55.20
2018-02-15T11:15:42.355Z,65.10
2018-02-15T11:16:42.255Z,65.80
2018-02-15T11:17:42.185Z,59.80
2018-02-15T11:18:42.091Z,59.20
2018-02-15T11:19:43.052Z,60.50
2018-02-15T11:20:41.921Z,64.40
2018-02-15T11:21:41.852Z,52.30
2018-02-15T11:22:41.757Z,61.40
2018-02-15T11:23:41.748Z,50.00
2018-02-15T11:24:41.632Z,58.00
2018-02-15T11:25:41.534Z,54.80
2018-02-15T11:26:41.431Z,59.60
2018-02-15T11:27:41.354Z,61.30
2018-02-15T11:28:41.251Z,54.10
2018-02-15T11:29:41.188Z,57.50
2018-02-15T11:30:41.104Z,55.40
2018-02-15T11:31:41.038Z,59.80
2018-02-15T11:32:40.913Z,54.40
2018-02-15T11:33:40.846Z,60.00
2018-02-15T11:34:40.750Z,54.90
2018-02-15T11:35:40.702Z,55.40
2018-02-15T11:36:40.587Z,52.80
2018-02-15T11:37:40.527Z,51.00
2018-02-15T11:38:40.417Z,55.60
2018-02-15T11:39:40.345Z,55.60
2018-02-15T11:40:40.293Z,55.20
2018-02-15T11:41:40.177Z,50.70
2018-02-15T11:42:40.077Z,53.60
2018-02-15T11:43:40.063Z,43.50
2018-02-15T11:44:39.934Z,45.20
2018-02-15T11:45:40.900Z,47.60
2018-02-15T11:46:39.760Z,52.70
2018-02-15T11:47:39.686Z,51.40
2018-02-15T11:48:39.600Z,48.60
2018-02-15T11:49:39.546Z,52.30
2018-02-15T11:50:39.455Z,45.70
2018-02-15T11:51:39.354Z,45.80
2018-02-15T11:52:39.270Z,46.60
2018-02-15T11:53:39.195Z,50.70
2018-02-15T11:54:39.106Z,46.10
2018-02-15T11:55:39.006Z,50.50
2018-02-15T11:56:38.951Z,47.90
2018-02-15T11:57:38.842Z,44.20
2018-02-15T11:58:38.753Z,49.80
2018-02-15T11:59:38.691Z,51.20
2018-02-15T12:00:38.600Z,50.60
2018-02-15T12:01:38.530Z,52.90
2018-02-15T12:02:38.411Z,47.60
2018-02-15T12:03:38.385Z,46.70
2018-02-15T12:04:38.245Z,43.00
2018-02-15T12:05:38.183Z,44.00
2018-02-15T12:06:38.093Z,45.70
2018-02-15T12:07:38.025Z,44.00
2018-02-15T12:08:37.906Z,46.70
2018-02-15T12:09:37.832Z,50.00
2018-02-15T12:10:37.747Z,43.90
2018-02-15T12:11:37.692Z,46.20
2018-02-15T12:12:37.579Z,42.30
2018-02-15T12:13:37.504Z,45.00
2018-02-15T12:14:37.423Z,44.80
2018-02-15T12:15:37.365Z,45.10
2018-02-15T12:16:37.246Z,41.30
2018-02-15T12:17:37.186Z,41.80
2018-02-15T12:18:37.089Z,41.20
2018-02-15T12:19:37.020Z,43.70
2018-02-15T12:20:36.920Z,36.50
2018-02-15T12:21:36.909Z,47.90
2018-02-15T12:22:36.760Z,36.50
2018-02-15T12:23:36.684Z,37.30
2018-02-15T12:24:36.618Z,35.30
2018-02-15T12:25:36.499Z,42.40
2018-02-15T12:26:36.402Z,40.80
2018-02-15T12:27:36.354Z,40.50
2018-02-15T12:28:36.259Z,42.60
2018-02-15T12:29:36.169Z,39.30
2018-02-15T12:30:36.075Z,37.10
2018-02-15T12:31:36.001Z,38.60
2018-02-15T12:32:35.934Z,37.00
2018-02-15T12:33:35.843Z,38.50
2018-02-15T12:34:35.747Z,34.70
2018-02-15T12:35:35.679Z,36.90
2018-02-15T12:36:35.712Z,35.00
2018-02-15T12:37:35.548Z,36.20
2018-02-15T12:38:35.418Z,35.50
2018-02-15T12:39:35.343Z,34.40
2018-02-15T12:40:35.249Z,33.60
2018-02-15T12:41:35.184Z,36.10
2018-02-15T12:42:35.075Z,36.30
2018-02-15T12:43:36.038Z,37.20
2018-02-15T12:44:34.924Z,35.40
2018-02-15T12:45:34.851Z,34.80
2018-02-15T12:46:34.749Z,34.10
2018-02-15T12:47:34.682Z,36.10
2018-02-15T12:48:34.599Z,33.70
2018-02-15T12:49:34.542Z,34.80
2018-02-15T12:50:34.406Z,34.90
2018-02-15T12:51:34.390Z,37.80
2018-02-15T12:52:34.283Z,39.30
2018-02-15T12:53:34.162Z,37.60
2018-02-15T12:54:34.097Z,36.80
2018-02-15T12:55:34.015Z,34.90
2018-02-15T12:56:33.903Z,35.10
2018-02-15T12:57:33.828Z,34.70
2018-02-15T12:58:33.781Z,34.80
2018-02-15T12:59:33.682Z,33.00
2018-02-15T13:00:33.577Z,32.10
2018-02-15T13:01:33.502Z,32.50
2018-02-15T13:02:33.415Z,35.30
2018-02-15T13:03:33.387Z,34.20
2018-02-15T13:04:33.257Z,33.70
2018-02-15T13:05:33.173Z,31.10
2018-02-15T13:06:33.199Z,32.50
2018-02-15T13:07:33.031Z,32.60
2018-02-15T13:08:32.929Z,33.80
2018-02-15T13:09:32.877Z,37.30
2018-02-15T13:10:32.749Z,36.50
2018-02-15T13:11:32.673Z,31.80
2018-02-15T13:12:32.596Z,36.30
2018-02-15T13:13:32.509Z,37.10
2018-02-15T13:14:32.441Z,36.20
2018-02-15T13:15:32.366Z,38.20
2018-02-15T13:16:32.244Z,41.00
2018-02-15T13:19:14.199Z,39.20
2018-02-15T13:20:14.108Z,39.20
2018-02-15T13:21:14.042Z,39.30
2018-02-15T13:22:13.949Z,39.60
2018-02-15T13:23:13.852Z,37.10
2018-02-15T13:24:13.841Z,38.30
2018-02-15T13:25:13.710Z,43.00